Time;durP1;ratioP1;P1;durP2;ratioP2;P2;SDS_P1;SDS_P2;PMS_P1;PMS_P2;Temp;Humidity;BMP_temperature;BMP_pressure;BME280_temperature;BME280_humidity;BME280_pressure;Samples;Min_cycle;Max_cycle;Signal;HPM_P1;HPM_P2
2023/03/15 00:01:29;;;;;;;2.30;0.40;;;;;;;16.85;50.15;96344.09;10394423;28;20792;-35
2023/03/15 00:06:32;;;;;;;3.90;0.73;;;;;;;16.84;50.58;96353.38;10393549;28;20416;-33
2023/03/15 00:11:33;;;;;;;1.77;0.85;;;;;;;16.88;59.03;96369.38;10389981;28;20303;-34
2023/03/15 00:16:33;;;;;;;3.60;1.00;;;;;;;16.90;59.24;96372.78;10396640;28;20036;-33
2023/03/15 00:21:34;;;;;;;2.08;0.65;;;;;;;16.94;54.07;96394.69;10393672;28;20559;-33
2023/03/15 00:26:35;;;;;;;1.25;0.60;;;;;;;16.91;52.78;96404.78;10385614;28;20550;-34
2023/03/15 00:31:35;;;;;;;2.08;0.55;;;;;;;16.89;52.92;96406.50;10388529;28;20501;-35
2023/03/15 00:36:36;;;;;;;1.13;0.53;;;;;;;16.88;53.07;96428.38;10393457;28;20037;-35
2023/03/15 00:41:36;;;;;;;3.97;1.75;;;;;;;16.89;52.51;96429.25;10389295;28;20041;-41
2023/03/15 00:46:37;;;;;;;1.40;0.70;;;;;;;16.89;53.34;96446.94;10382760;28;20556;-34
2023/03/15 00:51:37;;;;;;;1.35;0.73;;;;;;;16.90;52.18;96458.75;10395740;28;20129;-34
2023/03/15 00:56:39;;;;;;;0.73;0.40;;;;;;;16.88;52.40;96456.19;10397046;28;20037;-34
2023/03/15 01:01:43;;;;;;;0.85;0.60;;;;;;;16.87;52.60;96464.63;10394258;28;20041;-34
2023/03/15 01:06:43;;;;;;;1.40;0.65;;;;;;;16.89;52.32;96472.22;10400105;28;20041;-38
2023/03/15 01:11:44;;;;;;;1.83;0.57;;;;;;;16.88;52.29;96485.69;10400221;28;20033;-34
2023/03/15 01:16:45;;;;;;;1.52;0.50;;;;;;;16.87;51.79;96479.81;10391535;28;20053;-34
2023/03/15 01:21:46;;;;;;;1.75;0.40;;;;;;;16.88;51.82;96498.31;10396176;28;20059;-34
2023/03/15 01:26:47;;;;;;;3.67;0.98;;;;;;;16.88;58.67;96510.97;10390315;28;20037;-34
2023/03/15 01:31:48;;;;;;;0.77;0.65;;;;;;;16.91;58.62;96519.41;10387328;28;20417;-35
2023/03/15 01:36:52;;;;;;;1.83;0.70;;;;;;;16.93;57.84;96516.88;10389229;28;20041;-34
2023/03/15 01:41:55;;;;;;;1.23;0.60;;;;;;;16.88;52.94;96523.59;10389396;28;20026;-35
2023/03/15 01:46:56;;;;;;;1.48;0.60;;;;;;;16.88;52.80;96529.53;10391353;28;20056;-34
2023/03/15 01:52:03;;;;;;;1.13;0.60;;;;;;;16.87;52.50;96525.31;10381254;28;20036;-34
2023/03/15 01:57:36;;;;;;;2.42;0.55;;;;;;;16.87;52.39;96524.44;10394849;28;20564;-34
2023/03/15 02:02:45;;;;;;;0.93;0.60;;;;;;;16.86;52.22;96522.75;10388361;28;20038;-36
2023/03/15 02:07:53;;;;;;;0.88;0.50;;;;;;;16.84;51.80;96530.34;10385037;28;20034;-34
2023/03/15 02:12:57;;;;;;;1.80;0.40;;;;;;;16.80;51.50;96522.75;10401027;28;20036;-35
2023/03/15 02:17:57;;;;;;;0.30;0.30;;;;;;;16.84;51.52;96535.41;10390949;28;20030;-33
2023/03/15 02:23:07;;;;;;;1.20;0.50;;;;;;;16.84;51.36;96535.41;10397198;28;20029;-33
2023/03/15 02:28:10;;;;;;;1.95;0.68;;;;;;;16.83;51.50;96537.94;10393314;28;20451;-34
2023/03/15 02:33:22;;;;;;;0.70;0.45;;;;;;;16.82;51.38;96538.78;10393748;28;20459;-33
2023/03/15 02:38:23;;;;;;;3.80;0.50;;;;;;;16.83;51.03;96537.94;10382381;28;20025;-35
2023/03/15 02:43:28;;;;;;;2.93;1.03;;;;;;;16.83;57.77;96532.88;10396231;28;20037;-35
2023/03/15 02:48:31;;;;;;;3.72;0.85;;;;;;;16.85;57.48;96528.66;10382801;28;20033;-33
2023/03/15 02:53:32;;;;;;;2.40;0.63;;;;;;;16.87;57.03;96537.09;10397362;28;20033;-33
2023/03/15 02:58:32;;;;;;;2.93;0.60;;;;;;;16.82;53.29;96531.19;10391764;28;20037;-37
2023/03/15 03:03:35;;;;;;;2.05;0.40;;;;;;;16.84;52.04;96539.63;10392064;28;20284;-34
2023/03/15 03:08:36;;;;;;;1.77;0.60;;;;;;;16.83;52.04;96548.06;10392870;28;20038;-34
2023/03/15 03:13:38;;;;;;;1.25;0.60;;;;;;;16.83;51.30;96553.09;10388500;28;20320;-34
2023/03/15 03:18:41;;;;;;;0.43;0.30;;;;;;;16.82;51.70;96556.47;10383081;28;20030;-34
2023/03/15 03:23:45;;;;;;;1.05;0.60;;;;;;;16.81;51.42;96554.78;10399853;28;20042;-34
2023/03/15 03:28:46;;;;;;;1.98;0.60;;;;;;;16.80;51.09;96563.19;10383522;28;20040;-35
2023/03/15 03:33:47;;;;;;;1.05;0.60;;;;;;;16.82;53.41;96566.59;10384345;28;20084;-34
2023/03/15 03:38:47;;;;;;;1.50;0.93;;;;;;;16.82;54.52;96566.59;10391586;28;20022;-33
2023/03/15 03:43:48;;;;;;;1.48;0.77;;;;;;;16.81;53.59;96564.91;10380121;28;20091;-34
2023/03/15 03:48:49;;;;;;;2.35;0.47;;;;;;;16.81;55.38;96580.91;10389526;28;20048;-34
2023/03/15 03:53:50;;;;;;;2.13;0.70;;;;;;;16.79;55.37;96580.06;10387684;28;20030;-34
2023/03/15 03:58:50;;;;;;;2.15;0.50;;;;;;;16.80;56.29;96593.53;10386160;28;20048;-34
2023/03/15 04:03:55;;;;;;;1.33;0.80;;;;;;;16.85;55.99;96591.88;10380182;28;20030;-33
2023/03/15 04:08:57;;;;;;;1.15;0.63;;;;;;;16.88;56.23;96602.00;10378941;28;20026;-32
2023/03/15 04:14:04;;;;;;;2.28;0.63;;;;;;;16.84;55.97;96603.66;10378170;28;20056;-35
2023/03/15 04:19:06;;;;;;;2.10;0.57;;;;;;;16.80;55.48;96618.81;10391045;28;20030;-34
2023/03/15 04:24:08;;;;;;;0.75;0.50;;;;;;;16.81;55.38;96630.63;10397154;28;20143;-34
2023/03/15 04:29:35;;;;;;;2.80;1.07;;;;;;;16.80;55.66;96628.91;10395582;28;20038;-34
2023/03/15 04:34:54;;;;;;;0.43;0.30;;;;;;;16.78;55.04;96626.41;10400291;28;20041;-33
2023/03/15 04:40:15;;;;;;;0.68;0.40;;;;;;;16.78;54.94;96638.19;10398519;28;20037;-33
2023/03/15 04:45:45;;;;;;;0.85;0.50;;;;;;;16.79;54.72;96642.41;10357685;28;20041;-34
2023/03/15 04:50:58;;;;;;;1.50;1.08;;;;;;;16.74;54.82;96639.84;10398461;28;20116;-34
2023/03/15 04:56:28;;;;;;;0.90;0.40;;;;;;;16.77;55.09;96644.09;10393218;28;20042;-34
2023/03/15 05:01:41;;;;;;;1.15;0.82;;;;;;;16.83;53.31;96644.13;10397699;28;20108;-35
2023/03/15 05:06:51;;;;;;;0.60;0.50;;;;;;;16.83;54.46;96644.13;10392167;28;20061;-34
2023/03/15 05:12:10;;;;;;;1.35;0.50;;;;;;;16.86;54.22;96641.59;10398153;28;20517;-34
2023/03/15 05:17:32;;;;;;;0.80;0.30;;;;;;;16.89;54.47;96646.69;10391696;28;20064;-34
2023/03/15 05:22:36;;;;;;;4.93;1.45;;;;;;;16.93;55.31;96645.84;10387899;28;20041;-34
2023/03/15 05:27:55;;;;;;;1.45;0.50;;;;;;;16.97;55.19;96662.72;10393945;28;20037;-34
2023/03/15 05:33:27;;;;;;;2.80;0.57;;;;;;;16.94;53.39;96662.72;10394055;28;20405;-34
2023/03/15 05:38:54;;;;;;;2.10;0.60;;;;;;;16.97;53.84;96663.56;10380997;28;20029;-35
2023/03/15 05:44:18;;;;;;;4.32;0.85;;;;;;;16.95;53.72;96667.78;10386869;28;20037;-34
2023/03/15 05:49:41;;;;;;;3.00;0.80;;;;;;;16.93;53.42;96671.16;10377035;28;20494;-34
2023/03/15 05:54:56;;;;;;;0.40;0.30;;;;;;;16.96;51.33;96671.16;10395999;28;20067;-38
2023/03/15 06:00:16;;;;;;;0.77;0.50;;;;;;;16.95;50.77;96679.56;10390677;28;20045;-34
2023/03/15 06:05:16;;;;;;;6.35;1.77;;;;;;;17.03;51.89;96685.53;10372119;28;20117;-34
2023/03/15 06:10:18;;;;;;;3.50;1.70;;;;;;;16.99;51.65;96682.13;10375717;28;20030;-35
2023/03/15 06:15:19;;;;;;;4.60;1.45;;;;;;;16.88;50.45;96687.97;10374027;28;20048;-34
2023/03/15 06:20:21;;;;;;;5.85;1.20;;;;;;;16.77;52.07;96696.34;10390275;28;20045;-35
2023/03/15 06:25:22;;;;;;;9.07;1.85;;;;;;;16.78;52.56;96701.38;10388595;28;20026;-37
2023/03/15 06:30:22;;;;;;;5.40;1.70;;;;;;;16.37;49.05;96701.94;10379346;28;20026;-34
2023/03/15 06:35:30;;;;;;;13.02;1.67;;;;;;;16.17;45.80;96704.28;10373686;28;20033;-34
2023/03/15 06:40:30;;;;;;;7.50;2.47;;;;;;;16.37;47.89;96705.31;10375070;28;20022;-33
2023/03/15 06:45:32;;;;;;;7.03;1.80;;;;;;;16.51;48.99;96716.38;10375624;28;20780;-34
2023/03/15 06:50:32;;;;;;;9.40;1.92;;;;;;;16.57;49.34;96718.94;10378481;28;20030;-34
2023/03/15 06:55:33;;;;;;;6.07;1.10;;;;;;;16.59;49.79;96734.09;10381600;28;20034;-34
2023/03/15 07:00:34;;;;;;;2.90;1.52;;;;;;;16.60;49.97;96716.44;10381098;28;20052;-34
2023/03/15 07:05:36;;;;;;;3.58;1.30;;;;;;;16.60;50.84;96710.56;10375513;28;20501;-34
2023/03/15 07:10:36;;;;;;;8.10;1.52;;;;;;;16.57;50.84;96711.38;10389634;28;20026;-34
2023/03/15 07:15:36;;;;;;;4.67;1.73;;;;;;;16.59;50.77;96727.38;10382343;28;20025;-34
2023/03/15 07:20:37;;;;;;;3.63;1.77;;;;;;;16.55;51.36;96728.19;10370309;28;20285;-34
2023/03/15 07:25:37;;;;;;;4.10;1.33;;;;;;;16.56;51.37;96745.06;10381085;28;20991;-36
2023/03/15 07:30:37;;;;;;;5.60;1.43;;;;;;;16.57;51.70;96745.91;10376551;28;20379;-33
2023/03/15 07:35:38;;;;;;;3.33;1.20;;;;;;;16.54;51.67;96761.03;10372960;28;20413;-34
2023/03/15 07:40:38;;;;;;;3.05;1.15;;;;;;;16.53;52.07;96755.13;10387222;28;20034;-33
2023/03/15 07:45:39;;;;;;;1.97;0.87;;;;;;;16.53;51.72;96760.19;10386483;28;20030;-34
2023/03/15 07:50:40;;;;;;;2.90;0.90;;;;;;;16.52;51.48;96753.44;10367788;28;20029;-34
2023/03/15 07:55:40;;;;;;;5.00;1.20;;;;;;;16.53;52.19;96774.53;10371951;28;20032;-34
2023/03/15 08:00:41;;;;;;;3.00;0.93;;;;;;;16.54;52.99;96777.03;10368558;28;20034;-34
2023/03/15 08:05:41;;;;;;;5.23;1.63;;;;;;;16.55;52.43;96766.09;10370793;28;20038;-36
2023/03/15 08:10:43;;;;;;;2.57;1.47;;;;;;;16.53;51.71;96769.47;10383186;28;20021;-34
2023/03/15 08:15:46;;;;;;;2.03;0.93;;;;;;;16.52;51.93;96777.88;10395033;28;20064;-34
2023/03/15 08:20:47;;;;;;;2.83;0.95;;;;;;;16.46;51.82;96776.13;10367914;28;20113;-33
2023/03/15 08:25:48;;;;;;;3.17;1.00;;;;;;;16.47;52.51;96766.88;10381400;28;20484;-34
2023/03/15 08:30:49;;;;;;;5.82;0.80;;;;;;;16.49;52.22;96772.78;10386311;28;20034;-34
2023/03/15 08:35:53;;;;;;;0.83;0.60;;;;;;;16.48;51.96;96776.16;10370831;28;20036;-33
2023/03/15 08:40:57;;;;;;;2.05;0.90;;;;;;;16.46;52.32;96778.66;10376248;28;20525;-35
2023/03/15 08:45:57;;;;;;;3.88;1.05;;;;;;;16.47;51.91;96765.22;10389321;28;20033;-34
2023/03/15 08:51:03;;;;;;;2.35;0.70;;;;;;;16.43;52.29;96763.47;10367948;28;20115;-34
2023/03/15 08:56:03;;;;;;;2.08;0.77;;;;;;;16.44;51.78;96767.69;10383497;28;20034;-32
2023/03/15 09:01:04;;;;;;;2.33;0.73;;;;;;;16.45;51.83;96776.13;10384118;28;20030;-34
2023/03/15 09:06:05;;;;;;;3.13;1.02;;;;;;;16.43;52.13;96780.31;10365798;28;20033;-35
2023/03/15 09:11:05;;;;;;;2.63;1.00;;;;;;;16.47;52.33;96790.47;10381392;28;20478;-34
2023/03/15 09:16:06;;;;;;;2.10;0.97;;;;;;;16.49;52.32;96798.91;10371896;28;20071;-34
2023/03/15 09:21:06;;;;;;;1.58;0.90;;;;;;;16.50;52.39;96795.56;10374200;28;20079;-33
2023/03/15 09:26:09;;;;;;;1.23;0.60;;;;;;;16.48;52.04;96792.16;10390259;28;20029;-33
2023/03/15 09:31:10;;;;;;;0.77;0.60;;;;;;;16.45;51.54;96799.69;10381507;28;20133;-34
2023/03/15 09:36:10;;;;;;;1.50;0.80;;;;;;;16.42;51.47;96801.34;10389666;28;20026;-34
2023/03/15 09:41:26;;;;;;;0.75;0.52;;;;;;;16.41;51.79;96803.06;10389787;28;20504;-35
2023/03/15 09:46:31;;;;;;;2.22;0.68;;;;;;;16.39;51.77;96803.84;10383036;28;20026;-34
2023/03/15 09:51:47;;;;;;;1.20;0.50;;;;;;;16.40;51.59;96814.00;10374165;28;20120;-33
2023/03/15 09:57:00;;;;;;;1.48;0.75;;;;;;;16.40;51.56;96810.59;10381891;28;20434;-35
2023/03/15 10:02:16;;;;;;;1.50;0.60;;;;;;;16.41;51.80;96813.16;10392034;28;20477;-34
2023/03/15 10:07:17;;;;;;;0.75;0.45;;;;;;;16.39;51.42;96809.78;10376150;28;20049;-33
2023/03/15 10:12:40;;;;;;;1.35;0.68;;;;;;;16.38;51.50;96815.63;10377424;28;20060;-34
2023/03/15 10:18:15;;;;;;;0.70;0.50;;;;;;;16.38;51.77;96808.06;10385928;28;20471;-33
2023/03/15 10:23:27;;;;;;;1.02;0.50;;;;;;;16.37;51.39;96813.94;10370385;28;20042;-36
2023/03/15 10:28:30;;;;;;;0.90;0.60;;;;;;;16.39;51.95;96812.31;10379595;28;20112;-34
2023/03/15 10:33:36;;;;;;;2.15;1.15;;;;;;;16.46;51.89;96806.44;10375022;28;20034;-34
2023/03/15 10:38:37;;;;;;;0.67;0.40;;;;;;;16.48;52.14;96811.53;10388959;28;20032;-34
2023/03/15 10:43:38;;;;;;;0.77;0.60;;;;;;;16.47;52.05;96808.16;10382356;28;20040;-34
2023/03/15 10:48:52;;;;;;;0.60;0.50;;;;;;;16.43;51.77;96803.91;10388233;28;20038;-33
2023/03/15 10:54:00;;;;;;;0.88;0.60;;;;;;;16.41;51.24;96789.56;10385130;28;20438;-34
2023/03/15 10:59:00;;;;;;;1.23;0.60;;;;;;;16.40;51.71;96796.31;10372655;28;20112;-34
2023/03/15 11:04:14;;;;;;;2.53;0.77;;;;;;;16.37;51.93;96790.38;10397388;28;20052;-37
2023/03/15 11:09:24;;;;;;;0.40;0.30;;;;;;;16.41;51.80;96799.66;10383746;28;20060;-34
2023/03/15 11:14:46;;;;;;;1.02;0.60;;;;;;;16.34;50.33;96793.69;10380764;28;20102;-33
2023/03/15 11:19:55;;;;;;;2.97;0.90;;;;;;;16.46;51.09;96788.75;10368815;28;20456;-33
2023/03/15 11:24:57;;;;;;;1.63;0.50;;;;;;;16.46;50.01;96781.19;10382784;28;20033;-34
2023/03/15 11:30:00;;;;;;;4.03;1.10;;;;;;;16.47;50.98;96785.44;10376643;28;20398;-34
2023/03/15 11:35:10;;;;;;;7.60;1.20;;;;;;;16.52;51.68;96778.72;10368866;28;20042;-34
2023/03/15 11:40:21;;;;;;;7.88;1.60;;;;;;;16.51;52.79;96777.03;10378657;28;20033;-34
2023/03/15 11:45:43;;;;;;;3.45;1.05;;;;;;;16.49;52.68;96775.31;10390420;28;20041;-37
2023/03/15 11:51:04;;;;;;;3.28;1.30;;;;;;;16.44;49.45;96765.16;10369844;28;20061;-33
2023/03/15 11:56:27;;;;;;;4.55;0.93;;;;;;;16.51;52.17;96756.81;10372144;28;20038;-33
2023/03/15 12:01:27;;;;;;;7.35;1.85;;;;;;;16.54;52.55;96761.88;10378661;28;20038;-35
2023/03/15 12:06:36;;;;;;;6.23;1.40;;;;;;;16.56;51.86;96770.34;10367344;28;20497;-34
2023/03/15 12:11:39;;;;;;;6.10;1.63;;;;;;;16.53;51.63;96761.88;10372829;28;20379;-33
2023/03/15 12:16:45;;;;;;;7.45;1.55;;;;;;;16.56;51.20;96772.88;10378524;28;20041;-37
2023/03/15 12:21:56;;;;;;;5.80;1.50;;;;;;;16.53;51.28;96760.19;10367289;28;20030;-34
2023/03/15 12:27:21;;;;;;;6.10;1.48;;;;;;;16.54;51.04;96756.81;10378914;28;20041;-34
2023/03/15 12:32:21;;;;;;;6.35;1.38;;;;;;;16.54;51.14;96761.88;10386258;28;20510;-35
2023/03/15 12:37:22;;;;;;;8.83;1.57;;;;;;;16.54;51.35;96758.50;10377143;28;20026;-35
2023/03/15 12:42:28;;;;;;;7.67;1.17;;;;;;;16.52;51.31;96763.53;10377286;28;20291;-32
2023/03/15 12:47:43;;;;;;;3.30;1.40;;;;;;;16.53;50.97;96749.25;10370959;28;20096;-33
2023/03/15 12:52:46;;;;;;;5.07;1.17;;;;;;;16.51;51.23;96756.81;10383016;28;20030;-35
2023/03/15 12:57:52;;;;;;;2.22;0.82;;;;;;;16.51;50.82;96750.88;10398037;28;20025;-34
2023/03/15 13:03:15;;;;;;;6.38;1.63;;;;;;;16.53;49.38;96754.31;10391093;28;20317;-36
2023/03/15 13:08:30;;;;;;;3.60;1.60;;;;;;;16.54;49.32;96748.41;10379318;28;20041;-33
2023/03/15 13:13:39;;;;;;;4.25;1.10;;;;;;;16.54;52.24;96746.72;10375817;28;20506;-36
2023/03/15 13:18:47;;;;;;;6.28;1.08;;;;;;;16.55;52.18;96740.81;10382036;28;20038;-35
2023/03/15 13:23:51;;;;;;;7.53;1.30;;;;;;;16.57;51.14;96731.59;10384700;28;20457;-34
2023/03/15 13:29:13;;;;;;;5.35;1.27;;;;;;;16.54;52.80;96731.53;10389508;28;20042;-33
2023/03/15 13:34:23;;;;;;;5.07;1.17;;;;;;;16.53;52.47;96723.97;10382259;28;20037;-34
2023/03/15 13:39:25;;;;;;;5.95;1.40;;;;;;;16.54;52.08;96726.50;10390108;28;20076;-33
2023/03/15 13:44:27;;;;;;;4.00;1.40;;;;;;;16.52;52.04;96728.16;10377505;28;20029;-34
2023/03/15 13:49:32;;;;;;;6.88;1.67;;;;;;;16.51;48.78;96723.94;10375577;28;20042;-34
2023/03/15 13:54:33;;;;;;;5.40;1.70;;;;;;;16.59;47.84;96729.91;10373837;28;20040;-34
2023/03/15 13:59:55;;;;;;;2.55;1.33;;;;;;;16.63;47.48;96721.50;10370752;28;20405;-34
2023/03/15 14:05:00;;;;;;;3.10;1.20;;;;;;;16.65;47.65;96719.84;10372116;28;20042;-33
2023/03/15 14:10:21;;;;;;;8.13;2.15;;;;;;;16.66;46.97;96726.59;10392828;28;20042;-34
2023/03/15 14:15:35;;;;;;;4.05;1.20;;;;;;;16.61;49.61;96723.19;10377279;28;20087;-34
2023/03/15 14:20:41;;;;;;;18.60;2.42;;;;;;;16.59;51.43;96719.81;10387917;28;20066;-38
2023/03/15 14:25:43;;;;;;;9.07;1.65;;;;;;;16.58;53.35;96722.31;10387243;28;20116;-34
2023/03/15 14:30:54;;;;;;;14.10;2.03;;;;;;;16.56;53.20;96719.78;10388298;28;20052;-32
2023/03/15 14:35:58;;;;;;;17.73;2.13;;;;;;;16.53;52.44;96709.63;10387582;28;20033;-33
2023/03/15 14:41:22;;;;;;;12.82;2.45;;;;;;;16.51;52.68;96711.31;10376761;28;20029;-34
2023/03/15 14:46:23;;;;;;;6.95;1.75;;;;;;;16.52;52.06;96714.72;10387074;28;20446;-34
2023/03/15 14:51:24;;;;;;;8.20;1.80;;;;;;;16.51;52.77;96716.38;10384884;28;20022;-34
2023/03/15 14:56:24;;;;;;;8.05;1.42;;;;;;;16.50;52.11;96703.72;10382965;28;20034;-33
2023/03/15 15:01:26;;;;;;;10.68;1.63;;;;;;;16.49;51.89;96720.56;10385887;28;20506;-35
2023/03/15 15:06:28;;;;;;;3.42;1.17;;;;;;;16.49;52.38;96704.56;10369421;28;20497;-36
2023/03/15 15:11:29;;;;;;;4.90;1.17;;;;;;;16.49;52.04;96707.09;10382796;28;20029;-34
2023/03/15 15:16:29;;;;;;;5.22;1.55;;;;;;;16.43;52.02;96702.84;10370902;28;20049;-33
2023/03/15 15:21:30;;;;;;;5.80;1.93;;;;;;;16.48;52.04;96707.91;10376307;28;20030;-33
2023/03/15 15:26:32;;;;;;;4.97;1.23;;;;;;;16.49;52.23;96719.72;10375870;28;20049;-34
2023/03/15 15:31:33;;;;;;;3.08;1.35;;;;;;;16.49;52.08;96720.56;10389950;28;20083;-33
2023/03/15 15:36:37;;;;;;;5.10;1.05;;;;;;;16.47;51.70;96729.84;10380841;28;20088;-34
2023/03/15 15:41:37;;;;;;;4.47;1.25;;;;;;;16.47;52.49;96729.84;10390985;28;20030;-34
2023/03/15 15:46:37;;;;;;;8.17;0.80;;;;;;;16.52;52.53;96732.41;10368287;28;20494;-34
2023/03/15 15:51:47;;;;;;;1.73;1.00;;;;;;;16.51;52.26;96731.53;10377966;28;20041;-35
2023/03/15 15:56:54;;;;;;;4.68;0.93;;;;;;;16.48;52.32;96744.16;10381145;28;20040;-33
2023/03/15 16:01:55;;;;;;;3.60;0.95;;;;;;;16.43;51.95;96737.34;10381730;28;20600;-34
2023/03/15 16:07:00;;;;;;;3.00;1.10;;;;;;;16.49;52.25;96752.56;10368501;28;20073;-32
2023/03/15 16:12:00;;;;;;;3.40;0.80;;;;;;;16.49;52.01;96763.53;10375723;28;20577;-33
2023/03/15 16:17:01;;;;;;;1.73;0.80;;;;;;;16.48;51.41;96766.03;10368779;28;20113;-34
2023/03/15 16:22:01;;;;;;;2.67;0.97;;;;;;;16.48;51.77;96764.38;10372275;28;20489;-35
2023/03/15 16:27:05;;;;;;;2.42;0.70;;;;;;;16.48;51.55;96766.91;10382966;28;20037;-37
2023/03/15 16:32:06;;;;;;;2.70;0.63;;;;;;;16.47;51.82;96770.25;10382293;28;20030;-34
2023/03/15 16:37:12;;;;;;;1.83;1.10;;;;;;;16.47;51.28;96770.25;10375988;28;20034;-37
2023/03/15 16:42:14;;;;;;;0.75;0.60;;;;;;;16.46;51.43;96778.66;10383620;28;20038;-34
2023/03/15 16:47:14;;;;;;;2.33;1.55;;;;;;;16.46;51.95;96783.69;10387336;28;20038;-34
2023/03/15 16:52:16;;;;;;;1.03;0.70;;;;;;;16.46;52.29;96785.41;10385401;28;20044;-34
2023/03/15 16:57:20;;;;;;;1.58;1.02;;;;;;;16.46;52.19;96792.97;10391045;28;20033;-33
2023/03/15 17:02:24;;;;;;;2.47;0.70;;;;;;;16.48;52.49;96806.47;10388982;28;20041;-33
2023/03/15 17:07:30;;;;;;;2.88;0.90;;;;;;;16.51;52.51;96803.97;10367091;28;20103;-34
2023/03/15 17:12:30;;;;;;;1.75;0.60;;;;;;;16.51;52.24;96801.44;10391332;28;20116;-35
2023/03/15 17:17:31;;;;;;;1.37;0.60;;;;;;;16.49;51.69;96809.03;10385886;28;20033;-33
2023/03/15 17:22:31;;;;;;;5.20;1.48;;;;;;;16.49;50.43;96813.22;10375662;28;20036;-33
2023/03/15 17:27:36;;;;;;;5.90;0.90;;;;;;;16.54;49.13;96827.59;10376338;28;20032;-33
2023/03/15 17:32:36;;;;;;;6.53;1.10;;;;;;;16.46;52.81;96824.13;10382209;28;20057;-35
2023/03/15 17:37:37;;;;;;;6.97;1.67;;;;;;;16.46;53.38;96839.28;10379095;28;20579;-33
2023/03/15 17:42:40;;;;;;;4.53;1.20;;;;;;;16.46;53.35;96838.47;10382087;28;20036;-34
2023/03/15 17:47:40;;;;;;;4.63;0.95;;;;;;;16.47;52.31;96845.22;10385897;28;20088;-37
2023/03/15 17:52:42;;;;;;;5.80;0.83;;;;;;;16.47;52.42;96848.59;10382869;28;20095;-34
2023/03/15 17:57:43;;;;;;;5.18;1.00;;;;;;;16.46;52.26;96854.47;10370688;28;20064;-33
2023/03/15 18:02:45;;;;;;;5.53;1.05;;;;;;;16.43;52.21;96849.38;10368388;28;20125;-34
2023/03/15 18:07:48;;;;;;;2.55;0.85;;;;;;;16.48;49.71;96857.88;10384140;28;20132;-33
2023/03/15 18:12:48;;;;;;;5.30;1.45;;;;;;;16.52;50.38;96864.63;10371464;28;20061;-34
2023/03/15 18:17:49;;;;;;;4.75;1.20;;;;;;;16.54;50.52;96862.97;10385974;28;20369;-34
2023/03/15 18:22:50;;;;;;;11.27;3.28;;;;;;;16.60;54.00;96865.56;10380403;28;20588;-35
2023/03/15 18:27:51;;;;;;;8.13;1.70;;;;;;;16.63;53.19;96875.69;10387795;28;20030;-33
2023/03/15 18:32:52;;;;;;;6.70;2.90;;;;;;;16.62;52.50;96876.53;10387761;28;20480;-34
2023/03/15 18:37:54;;;;;;;7.28;1.48;;;;;;;16.63;52.09;96878.22;10376481;28;20177;-33
2023/03/15 18:42:56;;;;;;;9.98;2.40;;;;;;;16.61;52.22;96874.84;10369754;28;20034;-33
2023/03/15 18:47:58;;;;;;;9.90;1.45;;;;;;;16.63;51.35;96883.28;10378713;28;20041;-34
2023/03/15 18:52:59;;;;;;;5.80;1.50;;;;;;;16.66;51.54;96890.03;10374395;28;20064;-34
2023/03/15 18:58:00;;;;;;;17.38;1.95;;;;;;;16.67;52.73;96889.19;10399531;28;20033;-34
2023/03/15 19:03:02;;;;;;;11.00;2.67;;;;;;;16.67;51.79;96899.31;10379715;28;20045;-34
2023/03/15 19:08:02;;;;;;;15.52;2.03;;;;;;;16.69;52.15;96892.63;10376154;28;20489;-35
2023/03/15 19:13:03;;;;;;;5.88;1.42;;;;;;;16.68;51.80;96894.28;10383515;28;20041;-34
2023/03/15 19:18:04;;;;;;;13.03;1.87;;;;;;;16.68;52.72;96901.88;10381335;28;20038;-33
2023/03/15 19:23:04;;;;;;;6.18;1.40;;;;;;;16.67;52.31;96899.31;10383295;28;20040;-34
2023/03/15 19:28:05;;;;;;;4.90;1.27;;;;;;;16.63;51.94;96890.84;10376166;28;20026;-34
2023/03/15 19:33:06;;;;;;;15.15;2.00;;;;;;;16.48;50.67;96892.38;10375685;28;20091;-34
2023/03/15 19:38:06;;;;;;;5.88;1.40;;;;;;;16.58;53.97;96887.44;10377573;28;20123;-35
2023/03/15 19:43:08;;;;;;;4.70;1.37;;;;;;;16.64;54.12;96895.09;10364370;28;20455;-31
2023/03/15 19:48:09;;;;;;;6.43;2.17;;;;;;;16.65;53.68;96895.94;10369578;28;20044;-33
2023/03/15 19:53:10;;;;;;;8.27;1.53;;;;;;;16.62;52.25;96901.78;10369782;28;20043;-34
2023/03/15 19:58:11;;;;;;;6.43;1.75;;;;;;;16.66;51.92;96898.47;10368951;28;20053;-34
2023/03/15 20:03:11;;;;;;;7.17;1.10;;;;;;;16.66;51.12;96892.56;10367291;28;20343;-32
2023/03/15 20:08:12;;;;;;;9.30;1.20;;;;;;;16.69;52.45;96892.63;10345499;28;20417;-33
2023/03/15 20:13:13;;;;;;;4.47;1.42;;;;;;;16.72;51.42;96893.50;10371008;28;20045;-34
2023/03/15 20:18:14;;;;;;;4.50;1.20;;;;;;;16.73;51.12;96907.81;10368161;28;20037;-33
2023/03/15 20:23:17;;;;;;;3.35;1.40;;;;;;;16.76;51.20;96907.84;10370054;28;20045;-33
2023/03/15 20:28:18;;;;;;;2.35;1.05;;;;;;;16.75;50.88;96901.94;10365602;28;20048;-33
2023/03/15 20:33:18;;;;;;;5.37;1.50;;;;;;;16.73;51.32;96912.88;10390435;28;20041;-34
2023/03/15 20:38:18;;;;;;;4.20;1.30;;;;;;;16.73;51.53;96902.78;10377366;28;20037;-35
2023/03/15 20:43:19;;;;;;;5.50;1.30;;;;;;;16.72;51.14;96902.75;10378466;28;20417;-34
2023/03/15 20:48:22;;;;;;;5.43;1.30;;;;;;;16.65;51.51;96904.38;10383395;28;20462;-33
2023/03/15 20:53:23;;;;;;;3.42;1.05;;;;;;;16.68;52.44;96896.81;10362631;28;20056;-34
2023/03/15 20:58:23;;;;;;;5.28;1.67;;;;;;;16.66;53.85;96893.44;10369652;28;20480;-35
2023/03/15 21:03:23;;;;;;;4.43;1.38;;;;;;;16.67;54.89;96894.25;10371491;28;20506;-34
2023/03/15 21:08:24;;;;;;;2.37;1.50;;;;;;;16.67;53.37;96890.06;10365498;28;20045;-34
2023/03/15 21:13:24;;;;;;;2.70;1.17;;;;;;;16.65;52.76;96894.25;10379102;28;20049;-34
2023/03/15 21:18:24;;;;;;;3.57;1.33;;;;;;;16.65;52.88;96891.75;10380815;28;20037;-33
2023/03/15 21:23:26;;;;;;;5.93;2.22;;;;;;;16.66;53.02;96892.56;10374960;28;20493;-33
2023/03/15 21:28:27;;;;;;;1.83;0.90;;;;;;;16.67;52.81;96901.00;10383980;28;20045;-34
2023/03/15 21:33:29;;;;;;;4.95;1.10;;;;;;;16.69;51.65;96893.44;10375085;28;20090;-35
2023/03/15 21:38:32;;;;;;;1.77;1.10;;;;;;;16.70;51.74;96895.13;10384904;28;20034;-36
2023/03/15 21:43:32;;;;;;;1.80;0.82;;;;;;;16.70;51.63;96884.19;10373064;28;20033;-34
2023/03/15 21:48:34;;;;;;;3.20;1.02;;;;;;;16.68;52.47;96894.28;10377644;28;20040;-33
2023/03/15 21:53:35;;;;;;;5.22;1.10;;;;;;;16.66;54.42;96887.50;10405630;28;20417;-36
2023/03/15 21:58:35;;;;;;;0.93;0.68;;;;;;;16.66;53.25;96898.47;10387611;28;20026;-34
2023/03/15 22:03:35;;;;;;;2.30;1.03;;;;;;;16.62;54.07;96900.97;10383573;28;20037;-33
2023/03/15 22:08:36;;;;;;;2.90;1.23;;;;;;;16.62;54.52;96891.69;10381021;28;20045;-34
2023/03/15 22:13:36;;;;;;;2.70;0.97;;;;;;;16.62;55.17;96886.63;10388833;28;20405;-34
2023/03/15 22:18:37;;;;;;;4.00;0.90;;;;;;;16.65;56.42;96881.63;10390696;28;20322;-34
2023/03/15 22:23:37;;;;;;;2.77;0.90;;;;;;;16.63;55.73;96883.28;10385284;28;20496;-34
2023/03/15 22:28:37;;;;;;;5.28;1.10;;;;;;;16.62;54.40;96881.56;10386177;28;20303;-34
2023/03/15 22:33:38;;;;;;;2.47;1.10;;;;;;;16.56;55.05;96885.72;10389625;28;20033;-33
2023/03/15 22:38:38;;;;;;;2.73;0.90;;;;;;;16.53;55.20;96881.50;10382172;28;20792;-34
2023/03/15 22:43:39;;;;;;;3.22;0.90;;;;;;;16.51;54.86;96887.34;10394827;28;20300;-33
2023/03/15 22:48:39;;;;;;;3.73;1.10;;;;;;;16.48;55.37;96887.34;10390203;28;20071;-34
2023/03/15 22:53:40;;;;;;;2.13;0.80;;;;;;;16.46;55.47;96881.41;10394392;28;20572;-33
2023/03/15 22:58:40;;;;;;;3.08;0.80;;;;;;;16.46;55.56;96889.00;10385642;28;20346;-34
2023/03/15 23:03:40;;;;;;;3.97;0.93;;;;;;;16.45;55.29;96883.09;10397461;28;20057;-39
2023/03/15 23:08:41;;;;;;;4.30;1.03;;;;;;;16.44;55.08;96878.88;10396962;28;20041;-34
2023/03/15 23:13:41;;;;;;;2.72;0.85;;;;;;;16.38;55.53;96863.63;10389032;28;20288;-34
2023/03/15 23:18:42;;;;;;;1.37;0.90;;;;;;;16.44;55.45;96881.41;10383446;28;20037;-33
2023/03/15 23:23:43;;;;;;;3.17;1.00;;;;;;;16.44;55.14;96876.34;10389781;28;20040;-34
2023/03/15 23:28:43;;;;;;;2.10;0.80;;;;;;;16.43;55.23;96879.72;10389031;28;20580;-34
2023/03/15 23:33:45;;;;;;;3.57;1.60;;;;;;;16.55;55.54;96881.50;10392112;28;20117;-34